sensor_id;sensor_type;location;lat;lon;timestamp;pressure;altitude;pressure_sealevel;temperature;humidity
20043;BME280;10182;52.896;6.496;2023-04-24T00:01:33;99588.47;;;9.93;100.00
20043;BME280;10182;52.896;6.496;2023-04-24T00:06:38;99587.34;;;9.97;100.00
20043;BME280;10182;52.896;6.496;2023-04-24T00:11:43;99588.66;;;9.90;100.00
20043;BME280;10182;52.896;6.496;2023-04-24T00:16:44;99583.75;;;9.98;100.00
20043;BME280;10182;52.896;6.496;2023-04-24T00:21:47;99585.72;;;9.95;100.00
20043;BME280;10182;52.896;6.496;2023-04-24T00:26:51;99580.44;;;9.95;100.00
20043;BME280;10182;52.896;6.496;2023-04-24T00:31:52;99583.00;;;9.82;100.00
20043;BME280;10182;52.896;6.496;2023-04-24T00:36:55;99587.63;;;9.78;100.00
20043;BME280;10182;52.896;6.496;2023-04-24T00:41:57;99580.81;;;9.74;100.00
20043;BME280;10182;52.896;6.496;2023-04-24T00:46:59;99585.19;;;9.75;100.00
20043;BME280;10182;52.896;6.496;2023-04-24T00:52:03;99581.41;;;9.65;100.00
20043;BME280;10182;52.896;6.496;2023-04-24T00:57:09;99574.88;;;9.56;100.00
20043;BME280;10182;52.896;6.496;2023-04-24T01:02:11;99577.81;;;9.52;100.00
20043;BME280;10182;52.896;6.496;2023-04-24T01:07:14;99583.84;;;9.54;100.00
20043;BME280;10182;52.896;6.496;2023-04-24T01:12:16;99585.84;;;9.50;100.00
20043;BME280;10182;52.896;6.496;2023-04-24T01:17:18;99588.75;;;9.45;100.00
20043;BME280;10182;52.896;6.496;2023-04-24T01:22:22;99592.81;;;9.51;100.00
20043;BME280;10182;52.896;6.496;2023-04-24T01:27:24;99587.25;;;9.56;100.00
20043;BME280;10182;52.896;6.496;2023-04-24T01:32:26;99579.97;;;9.59;100.00
20043;BME280;10182;52.896;6.496;2023-04-24T01:37:29;99583.94;;;9.52;100.00
20043;BME280;10182;52.896;6.496;2023-04-24T01:42:32;99589.41;;;9.49;100.00
20043;BME280;10182;52.896;6.496;2023-04-24T01:47:34;99589.31;;;9.51;100.00
20043;BME280;10182;52.896;6.496;2023-04-24T01:52:37;99590.94;;;9.53;100.00
20043;BME280;10182;52.896;6.496;2023-04-24T01:57:39;99587.91;;;9.45;100.00
20043;BME280;10182;52.896;6.496;2023-04-24T02:02:41;99585.34;;;9.43;100.00
20043;BME280;10182;52.896;6.496;2023-04-24T02:07:44;99590.25;;;9.35;100.00
20043;BME280;10182;52.896;6.496;2023-04-24T02:12:46;99593.63;;;9.37;100.00
20043;BME280;10182;52.896;6.496;2023-04-24T02:17:48;99589.19;;;9.23;100.00
20043;BME280;10182;52.896;6.496;2023-04-24T02:22:51;99600.97;;;9.32;100.00
20043;BME280;10182;52.896;6.496;2023-04-24T02:27:52;99587.84;;;9.16;100.00
20043;BME280;10182;52.896;6.496;2023-04-24T02:32:54;99593.03;;;9.18;100.00
20043;BME280;10182;52.896;6.496;2023-04-24T02:37:57;99582.38;;;9.19;100.00
20043;BME280;10182;52.896;6.496;2023-04-24T02:42:59;99590.22;;;9.21;100.00
20043;BME280;10182;52.896;6.496;2023-04-24T02:48:01;99587.06;;;9.14;100.00
20043;BME280;10182;52.896;6.496;2023-04-24T02:53:04;99589.91;;;9.11;100.00
20043;BME280;10182;52.896;6.496;2023-04-24T02:58:06;99584.19;;;9.19;100.00
20043;BME280;10182;52.896;6.496;2023-04-24T03:03:07;99590.13;;;9.22;100.00
20043;BME280;10182;52.896;6.496;2023-04-24T03:08:11;99587.94;;;9.14;100.00
20043;BME280;10182;52.896;6.496;2023-04-24T03:13:13;99604.25;;;9.07;100.00
20043;BME280;10182;52.896;6.496;2023-04-24T03:18:14;99603.13;;;9.11;100.00
20043;BME280;10182;52.896;6.496;2023-04-24T03:23:17;99596.94;;;8.96;100.00
20043;BME280;10182;52.896;6.496;2023-04-24T03:28:19;99600.41;;;8.96;100.00
20043;BME280;10182;52.896;6.496;2023-04-24T03:33:20;99596.53;;;8.88;100.00
20043;BME280;10182;52.896;6.496;2023-04-24T03:38:23;99595.41;;;8.92;100.00
20043;BME280;10182;52.896;6.496;2023-04-24T03:43:25;99600.28;;;8.84;100.00
20043;BME280;10182;52.896;6.496;2023-04-24T03:48:27;99604.47;;;8.88;100.00
20043;BME280;10182;52.896;6.496;2023-04-24T03:53:30;99604.28;;;8.91;100.00
20043;BME280;10182;52.896;6.496;2023-04-24T03:58:32;99606.06;;;8.90;100.00
20043;BME280;10182;52.896;6.496;2023-04-24T04:03:33;99604.19;;;8.92;100.00
20043;BME280;10182;52.896;6.496;2023-04-24T04:08:37;99610.31;;;8.93;100.00
20043;BME280;10182;52.896;6.496;2023-04-24T04:13:38;99612.78;;;8.96;100.00
20043;BME280;10182;52.896;6.496;2023-04-24T04:18:40;99617.31;;;8.94;100.00
20043;BME280;10182;52.896;6.496;2023-04-24T04:23:43;99617.97;;;8.97;100.00
20043;BME280;10182;52.896;6.496;2023-04-24T04:28:45;99618.34;;;8.91;100.00
20043;BME280;10182;52.896;6.496;2023-04-24T04:33:48;99621.41;;;8.84;100.00
20043;BME280;10182;52.896;6.496;2023-04-24T04:38:51;99631.97;;;8.84;100.00
20043;BME280;10182;52.896;6.496;2023-04-24T04:43:52;99634.91;;;8.63;100.00
20043;BME280;10182;52.896;6.496;2023-04-24T04:48:54;99645.19;;;8.68;100.00
20043;BME280;10182;52.896;6.496;2023-04-24T04:53:58;99645.38;;;8.64;100.00
20043;BME280;10182;52.896;6.496;2023-04-24T04:59:00;99654.06;;;8.67;100.00
20043;BME280;10182;52.896;6.496;2023-04-24T05:04:01;99654.06;;;8.67;100.00
20043;BME280;10182;52.896;6.496;2023-04-24T05:09:04;99657.38;;;8.70;100.00
20043;BME280;10182;52.896;6.496;2023-04-24T05:14:07;99658.66;;;8.79;100.00
20043;BME280;10182;52.896;6.496;2023-04-24T05:19:09;99669.28;;;8.77;100.00
20043;BME280;10182;52.896;6.496;2023-04-24T05:24:13;99678.16;;;8.76;100.00
20043;BME280;10182;52.896;6.496;2023-04-24T05:29:15;99675.44;;;8.78;100.00
20043;BME280;10182;52.896;6.496;2023-04-24T05:34:16;99689.13;;;8.85;100.00
20043;BME280;10182;52.896;6.496;2023-04-24T05:39:19;99692.09;;;8.78;100.00
20043;BME280;10182;52.896;6.496;2023-04-24T05:44:21;99704.38;;;8.79;100.00
20043;BME280;10182;52.896;6.496;2023-04-24T05:49:23;99709.66;;;8.79;100.00
20043;BME280;10182;52.896;6.496;2023-04-24T05:54:26;99712.91;;;8.85;100.00
20043;BME280;10182;52.896;6.496;2023-04-24T05:59:28;99721.94;;;8.80;100.00
20043;BME280;10182;52.896;6.496;2023-04-24T06:04:29;99723.28;;;8.88;100.00
20043;BME280;10182;52.896;6.496;2023-04-24T06:09:32;99727.13;;;8.98;100.00
20043;BME280;10182;52.896;6.496;2023-04-24T06:14:34;99744.44;;;9.04;100.00
20043;BME280;10182;52.896;6.496;2023-04-24T06:19:36;99751.75;;;8.98;100.00
20043;BME280;10182;52.896;6.496;2023-04-24T06:24:39;99769.44;;;8.96;100.00
20043;BME280;10182;52.896;6.496;2023-04-24T06:29:41;99780.19;;;8.93;100.00
20043;BME280;10182;52.896;6.496;2023-04-24T06:34:42;99779.59;;;8.88;100.00
20043;BME280;10182;52.896;6.496;2023-04-24T06:39:46;99787.59;;;8.87;100.00
20043;BME280;10182;52.896;6.496;2023-04-24T06:44:47;99797.16;;;8.89;100.00
20043;BME280;10182;52.896;6.496;2023-04-24T06:49:49;99797.84;;;8.93;100.00
20043;BME280;10182;52.896;6.496;2023-04-24T06:55:00;99802.19;;;8.94;100.00
20043;BME280;10182;52.896;6.496;2023-04-24T07:00:01;99809.75;;;8.84;100.00
20043;BME280;10182;52.896;6.496;2023-04-24T07:05:05;99815.56;;;8.91;100.00
20043;BME280;10182;52.896;6.496;2023-04-24T07:10:10;99811.47;;;8.85;100.00
20043;BME280;10182;52.896;6.496;2023-04-24T07:15:11;99815.13;;;8.83;100.00
20043;BME280;10182;52.896;6.496;2023-04-24T07:20:13;99825.69;;;8.83;100.00
20043;BME280;10182;52.896;6.496;2023-04-24T07:25:17;99834.63;;;8.80;100.00
20043;BME280;10182;52.896;6.496;2023-04-24T07:30:19;99845.09;;;8.81;100.00
20043;BME280;10182;52.896;6.496;2023-04-24T07:35:21;99851.47;;;8.77;100.00
20043;BME280;10182;52.896;6.496;2023-04-24T07:40:24;99851.56;;;8.76;100.00
20043;BME280;10182;52.896;6.496;2023-04-24T07:45:25;99867.22;;;8.63;100.00
20043;BME280;10182;52.896;6.496;2023-04-24T07:50:28;99883.03;;;8.63;100.00
20043;BME280;10182;52.896;6.496;2023-04-24T07:55:31;99886.53;;;8.63;100.00
20043;BME280;10182;52.896;6.496;2023-04-24T08:00:33;99899.16;;;8.74;100.00
20043;BME280;10182;52.896;6.496;2023-04-24T08:05:35;99906.88;;;8.61;100.00
20043;BME280;10182;52.896;6.496;2023-04-24T08:10:38;99914.56;;;8.66;100.00
20043;BME280;10182;52.896;6.496;2023-04-24T08:15:40;99927.97;;;8.44;100.00
20043;BME280;10182;52.896;6.496;2023-04-24T08:20:41;99947.53;;;8.40;100.00
20043;BME280;10182;52.896;6.496;2023-04-24T08:25:45;99950.47;;;8.34;100.00
20043;BME280;10182;52.896;6.496;2023-04-24T08:30:47;99956.47;;;8.37;100.00
20043;BME280;10182;52.896;6.496;2023-04-24T08:35:52;99979.25;;;8.21;100.00
20043;BME280;10182;52.896;6.496;2023-04-24T08:40:57;99981.34;;;8.14;100.00
20043;BME280;10182;52.896;6.496;2023-04-24T08:46:00;99989.41;;;8.11;100.00
20043;BME280;10182;52.896;6.496;2023-04-24T08:51:02;100003.38;;;7.94;100.00
20043;BME280;10182;52.896;6.496;2023-04-24T08:56:09;100015.38;;;7.82;100.00
20043;BME280;10182;52.896;6.496;2023-04-24T09:01:11;100016.47;;;7.78;100.00
20043;BME280;10182;52.896;6.496;2023-04-24T09:06:13;100027.13;;;7.75;100.00
20043;BME280;10182;52.896;6.496;2023-04-24T09:11:17;100032.34;;;7.76;100.00
20043;BME280;10182;52.896;6.496;2023-04-24T09:16:19;100038.38;;;7.78;100.00
20043;BME280;10182;52.896;6.496;2023-04-24T09:21:23;100043.09;;;7.91;100.00
20043;BME280;10182;52.896;6.496;2023-04-24T09:26:29;100043.81;;;7.94;100.00
20043;BME280;10182;52.896;6.496;2023-04-24T09:31:32;100065.09;;;8.09;100.00
20043;BME280;10182;52.896;6.496;2023-04-24T09:36:35;100060.78;;;8.08;100.00
20043;BME280;10182;52.896;6.496;2023-04-24T09:41:45;100072.31;;;8.05;100.00
20043;BME280;10182;52.896;6.496;2023-04-24T09:46:50;100086.72;;;7.98;100.00
20043;BME280;10182;52.896;6.496;2023-04-24T09:51:52;100096.63;;;7.93;100.00
20043;BME280;10182;52.896;6.496;2023-04-24T09:57:07;100110.81;;;7.90;100.00
20043;BME280;10182;52.896;6.496;2023-04-24T10:02:17;100117.16;;;8.05;100.00
20043;BME280;10182;52.896;6.496;2023-04-24T10:07:19;100124.53;;;8.18;100.00
20043;BME280;10182;52.896;6.496;2023-04-24T10:12:22;100130.56;;;8.39;100.00
20043;BME280;10182;52.896;6.496;2023-04-24T10:17:25;100127.38;;;8.51;100.00
20043;BME280;10182;52.896;6.496;2023-04-24T10:22:28;100127.06;;;8.38;100.00
20043;BME280;10182;52.896;6.496;2023-04-24T10:27:32;100137.22;;;8.28;100.00
20043;BME280;10182;52.896;6.496;2023-04-24T10:32:36;100145.63;;;8.18;100.00
20043;BME280;10182;52.896;6.496;2023-04-24T10:37:42;100161.66;;;8.13;100.00
20043;BME280;10182;52.896;6.496;2023-04-24T10:42:49;100178.53;;;8.09;100.00
20043;BME280;10182;52.896;6.496;2023-04-24T10:47:56;100193.53;;;8.08;100.00
20043;BME280;10182;52.896;6.496;2023-04-24T10:53:12;100190.66;;;8.13;100.00
20043;BME280;10182;52.896;6.496;2023-04-24T10:58:16;100199.53;;;8.31;100.00
20043;BME280;10182;52.896;6.496;2023-04-24T11:03:26;100199.09;;;8.40;100.00
20043;BME280;10182;52.896;6.496;2023-04-24T11:08:30;100207.00;;;8.40;100.00
20043;BME280;10182;52.896;6.496;2023-04-24T11:14:08;100222.84;;;8.40;100.00
20043;BME280;10182;52.896;6.496;2023-04-24T11:19:18;100235.63;;;8.30;100.00
20043;BME280;10182;52.896;6.496;2023-04-24T11:24:27;100238.31;;;8.29;100.00
20043;BME280;10182;52.896;6.496;2023-04-24T11:29:41;100235.84;;;8.26;100.00
20043;BME280;10182;52.896;6.496;2023-04-24T11:34:46;100244.97;;;8.38;100.00
20043;BME280;10182;52.896;6.496;2023-04-24T11:39:50;100241.75;;;8.71;100.00
20043;BME280;10182;52.896;6.496;2023-04-24T11:44:54;100240.28;;;8.83;100.00
20043;BME280;10182;52.896;6.496;2023-04-24T11:49:58;100241.94;;;8.66;100.00
20043;BME280;10182;52.896;6.496;2023-04-24T11:54:59;100252.94;;;8.57;100.00
20043;BME280;10182;52.896;6.496;2023-04-24T12:00:04;100269.78;;;8.34;100.00
20043;BME280;10182;52.896;6.496;2023-04-24T12:05:07;100275.53;;;8.43;100.00
20043;BME280;10182;52.896;6.496;2023-04-24T12:10:09;100285.47;;;8.57;100.00
20043;BME280;10182;52.896;6.496;2023-04-24T12:15:12;100279.53;;;8.52;100.00
20043;BME280;10182;52.896;6.496;2023-04-24T12:20:14;100292.47;;;8.58;100.00
20043;BME280;10182;52.896;6.496;2023-04-24T12:25:17;100280.81;;;8.81;100.00
20043;BME280;10182;52.896;6.496;2023-04-24T12:30:21;100287.31;;;9.12;100.00
20043;BME280;10182;52.896;6.496;2023-04-24T12:35:25;100295.72;;;9.21;100.00
20043;BME280;10182;52.896;6.496;2023-04-24T12:40:27;100290.47;;;9.02;100.00
20043;BME280;10182;52.896;6.496;2023-04-24T12:45:31;100306.47;;;9.18;100.00
20043;BME280;10182;52.896;6.496;2023-04-24T12:50:33;100307.88;;;9.25;100.00
20043;BME280;10182;52.896;6.496;2023-04-24T12:55:35;100307.81;;;9.07;100.00
20043;BME280;10182;52.896;6.496;2023-04-24T13:00:38;100319.69;;;8.98;100.00
20043;BME280;10182;52.896;6.496;2023-04-24T13:05:41;100343.09;;;8.87;100.00
20043;BME280;10182;52.896;6.496;2023-04-24T13:10:43;100339.94;;;8.60;100.00
20043;BME280;10182;52.896;6.496;2023-04-24T13:15:47;100339.50;;;8.69;100.00
20043;BME280;10182;52.896;6.496;2023-04-24T13:20:48;100341.56;;;8.81;100.00
20043;BME280;10182;52.896;6.496;2023-04-24T13:25:50;100351.88;;;8.88;100.00
20043;BME280;10182;52.896;6.496;2023-04-24T13:30:53;100352.19;;;8.61;100.00
20043;BME280;10182;52.896;6.496;2023-04-24T13:35:55;100365.84;;;8.50;100.00
20043;BME280;10182;52.896;6.496;2023-04-24T13:40:57;100377.41;;;8.27;100.00
20043;BME280;10182;52.896;6.496;2023-04-24T13:46:00;100385.50;;;8.22;100.00
20043;BME280;10182;52.896;6.496;2023-04-24T13:51:03;100383.31;;;8.11;100.00
20043;BME280;10182;52.896;6.496;2023-04-24T13:56:05;100382.94;;;8.21;100.00
20043;BME280;10182;52.896;6.496;2023-04-24T14:01:08;100385.31;;;8.27;100.00
20043;BME280;10182;52.896;6.496;2023-04-24T14:06:10;100390.31;;;8.33;100.00
20043;BME280;10182;52.896;6.496;2023-04-24T14:11:12;100383.00;;;8.40;100.00
20043;BME280;10182;52.896;6.496;2023-04-24T14:16:15;100382.94;;;8.41;100.00
20043;BME280;10182;52.896;6.496;2023-04-24T14:21:17;100384.78;;;8.39;100.00
20043;BME280;10182;52.896;6.496;2023-04-24T14:26:19;100379.63;;;8.36;100.00
20043;BME280;10182;52.896;6.496;2023-04-24T14:31:22;100393.09;;;8.30;100.00
20043;BME280;10182;52.896;6.496;2023-04-24T14:36:24;100399.22;;;8.10;100.00
20043;BME280;10182;52.896;6.496;2023-04-24T14:41:25;100397.69;;;8.04;100.00
20043;BME280;10182;52.896;6.496;2023-04-24T14:46:28;100401.72;;;8.13;100.00
20043;BME280;10182;52.896;6.496;2023-04-24T14:51:30;100403.00;;;8.25;100.00
20043;BME280;10182;52.896;6.496;2023-04-24T14:56:32;100396.78;;;8.26;100.00
20043;BME280;10182;52.896;6.496;2023-04-24T15:01:35;100401.94;;;8.29;100.00
20043;BME280;10182;52.896;6.496;2023-04-24T15:06:37;100419.16;;;8.38;100.00
20043;BME280;10182;52.896;6.496;2023-04-24T15:11:38;100415.91;;;8.53;100.00
20043;BME280;10182;52.896;6.496;2023-04-24T15:16:42;100422.69;;;8.79;100.00
20043;BME280;10182;52.896;6.496;2023-04-24T15:21:44;100418.44;;;8.75;100.00
20043;BME280;10182;52.896;6.496;2023-04-24T15:26:45;100422.47;;;8.63;100.00
20043;BME280;10182;52.896;6.496;2023-04-24T15:31:49;100432.31;;;8.39;100.00
20043;BME280;10182;52.896;6.496;2023-04-24T15:36:50;100445.59;;;8.16;100.00
20043;BME280;10182;52.896;6.496;2023-04-24T15:41:52;100434.28;;;8.34;100.00
20043;BME280;10182;52.896;6.496;2023-04-24T15:46:56;100448.91;;;8.21;100.00
20043;BME280;10182;52.896;6.496;2023-04-24T15:51:57;100452.44;;;8.20;100.00
20043;BME280;10182;52.896;6.496;2023-04-24T15:56:59;100461.84;;;8.05;100.00
20043;BME280;10182;52.896;6.496;2023-04-24T16:02:02;100468.78;;;8.07;100.00
20043;BME280;10182;52.896;6.496;2023-04-24T16:07:05;100475.22;;;8.22;100.00
20043;BME280;10182;52.896;6.496;2023-04-24T16:12:08;100476.53;;;8.12;100.00
20043;BME280;10182;52.896;6.496;2023-04-24T16:17:11;100486.81;;;7.96;100.00
20043;BME280;10182;52.896;6.496;2023-04-24T16:22:13;100478.16;;;7.92;100.00
20043;BME280;10182;52.896;6.496;2023-04-24T16:27:14;100483.41;;;8.16;100.00
20043;BME280;10182;52.896;6.496;2023-04-24T16:32:18;100487.00;;;8.13;100.00
20043;BME280;10182;52.896;6.496;2023-04-24T16:37:19;100488.16;;;8.06;100.00
20043;BME280;10182;52.896;6.496;2023-04-24T16:42:21;100493.34;;;8.09;100.00
20043;BME280;10182;52.896;6.496;2023-04-24T16:47:24;100496.34;;;8.00;100.00
20043;BME280;10182;52.896;6.496;2023-04-24T16:52:26;100503.44;;;7.98;100.00
20043;BME280;10182;52.896;6.496;2023-04-24T16:57:28;100508.00;;;7.94;100.00
20043;BME280;10182;52.896;6.496;2023-04-24T17:02:31;100514.59;;;7.83;100.00
20043;BME280;10182;52.896;6.496;2023-04-24T17:07:33;100508.34;;;7.85;100.00
20043;BME280;10182;52.896;6.496;2023-04-24T17:12:35;100517.59;;;7.73;100.00
20043;BME280;10182;52.896;6.496;2023-04-24T17:17:38;100510.97;;;7.63;100.00
20043;BME280;10182;52.896;6.496;2023-04-24T17:22:41;100513.88;;;7.55;100.00
20043;BME280;10182;52.896;6.496;2023-04-24T17:27:43;100513.94;;;7.54;100.00
20043;BME280;10182;52.896;6.496;2023-04-24T17:32:47;100520.69;;;7.61;100.00
20043;BME280;10182;52.896;6.496;2023-04-24T17:37:48;100527.75;;;7.60;100.00
20043;BME280;10182;52.896;6.496;2023-04-24T17:42:50;100534.84;;;7.58;100.00
20043;BME280;10182;52.896;6.496;2023-04-24T17:47:53;100547.06;;;7.12;100.00
20043;BME280;10182;52.896;6.496;2023-04-24T17:52:56;100545.50;;;7.06;100.00
20043;BME280;10182;52.896;6.496;2023-04-24T17:57:57;100553.34;;;6.83;100.00
20043;BME280;10182;52.896;6.496;2023-04-24T18:03:03;100560.47;;;6.79;100.00
20043;BME280;10182;52.896;6.496;2023-04-24T18:08:05;100561.41;;;6.78;100.00
20043;BME280;10182;52.896;6.496;2023-04-24T18:13:07;100563.56;;;6.65;100.00
20043;BME280;10182;52.896;6.496;2023-04-24T18:18:12;100562.56;;;6.69;100.00
20043;BME280;10182;52.896;6.496;2023-04-24T18:23:14;100567.81;;;6.69;100.00
20043;BME280;10182;52.896;6.496;2023-04-24T18:28:16;100576.50;;;6.73;100.00
20043;BME280;10182;52.896;6.496;2023-04-24T18:33:21;100585.25;;;6.73;100.00
20043;BME280;10182;52.896;6.496;2023-04-24T18:38:23;100580.09;;;6.70;100.00
20043;BME280;10182;52.896;6.496;2023-04-24T18:43:25;100587.94;;;6.72;100.00
20043;BME280;10182;52.896;6.496;2023-04-24T18:48:28;100582.66;;;6.72;100.00
20043;BME280;10182;52.896;6.496;2023-04-24T18:53:30;100594.91;;;6.73;100.00
20043;BME280;10182;52.896;6.496;2023-04-24T18:58:32;100597.50;;;6.74;100.00
20043;BME280;10182;52.896;6.496;2023-04-24T19:03:35;100609.72;;;6.77;100.00
20043;BME280;10182;52.896;6.496;2023-04-24T19:08:37;100614.00;;;6.80;100.00
20043;BME280;10182;52.896;6.496;2023-04-24T19:13:41;100613.91;;;6.83;100.00
20043;BME280;10182;52.896;6.496;2023-04-24T19:18:45;100624.50;;;6.81;100.00
20043;BME280;10182;52.896;6.496;2023-04-24T19:23:46;100636.88;;;6.77;100.00
20043;BME280;10182;52.896;6.496;2023-04-24T19:28:49;100634.97;;;6.83;100.00
20043;BME280;10182;52.896;6.496;2023-04-24T19:33:54;100648.03;;;6.86;100.00
20043;BME280;10182;52.896;6.496;2023-04-24T19:38:56;100643.47;;;6.91;100.00
20043;BME280;10182;52.896;6.496;2023-04-24T19:43:57;100646.00;;;6.94;100.00
20043;BME280;10182;52.896;6.496;2023-04-24T19:49:00;100644.38;;;6.90;100.00
20043;BME280;10182;52.896;6.496;2023-04-24T19:54:02;100648.69;;;6.92;100.00
20043;BME280;10182;52.896;6.496;2023-04-24T19:59:05;100641.63;;;6.94;100.00
20043;BME280;10182;52.896;6.496;2023-04-24T20:04:09;100647.72;;;6.95;100.00
20043;BME280;10182;52.896;6.496;2023-04-24T20:09:11;100655.63;;;6.95;100.00
20043;BME280;10182;52.896;6.496;2023-04-24T20:14:13;100656.34;;;7.00;100.00
20043;BME280;10182;52.896;6.496;2023-04-24T20:19:16;100658.25;;;6.95;100.00
20043;BME280;10182;52.896;6.496;2023-04-24T20:24:18;100656.47;;;6.95;100.00
20043;BME280;10182;52.896;6.496;2023-04-24T20:29:20;100659.03;;;6.99;100.00
20043;BME280;10182;52.896;6.496;2023-04-24T20:34:23;100668.75;;;6.97;100.00
20043;BME280;10182;52.896;6.496;2023-04-24T20:39:25;100674.31;;;6.87;100.00
20043;BME280;10182;52.896;6.496;2023-04-24T20:44:27;100676.09;;;6.87;100.00
20043;BME280;10182;52.896;6.496;2023-04-24T20:49:30;100686.72;;;6.84;100.00
20043;BME280;10182;52.896;6.496;2023-04-24T20:54:32;100681.69;;;6.76;100.00
20043;BME280;10182;52.896;6.496;2023-04-24T20:59:34;100679.13;;;6.74;100.00
20043;BME280;10182;52.896;6.496;2023-04-24T21:04:37;100691.22;;;6.80;100.00
20043;BME280;10182;52.896;6.496;2023-04-24T21:09:39;100694.84;;;6.76;100.00
20043;BME280;10182;52.896;6.496;2023-04-24T21:14:41;100694.19;;;6.69;100.00
20043;BME280;10182;52.896;6.496;2023-04-24T21:19:44;100705.91;;;6.59;100.00
20043;BME280;10182;52.896;6.496;2023-04-24T21:24:45;100704.31;;;6.53;100.00
20043;BME280;10182;52.896;6.496;2023-04-24T21:29:47;100708.69;;;6.54;100.00
20043;BME280;10182;52.896;6.496;2023-04-24T21:34:50;100712.34;;;6.49;100.00
20043;BME280;10182;52.896;6.496;2023-04-24T21:39:52;100718.78;;;6.40;100.00
20043;BME280;10182;52.896;6.496;2023-04-24T21:44:55;100727.38;;;6.45;100.00
20043;BME280;10182;52.896;6.496;2023-04-24T21:49:58;100730.03;;;6.43;100.00
20043;BME280;10182;52.896;6.496;2023-04-24T21:55:00;100731.63;;;6.51;100.00
20043;BME280;10182;52.896;6.496;2023-04-24T22:00:02;100742.31;;;6.44;100.00
20043;BME280;10182;52.896;6.496;2023-04-24T22:05:08;100744.19;;;6.39;100.00
20043;BME280;10182;52.896;6.496;2023-04-24T22:10:15;100750.47;;;6.35;100.00
20043;BME280;10182;52.896;6.496;2023-04-24T22:15:17;100754.88;;;6.35;100.00
20043;BME280;10182;52.896;6.496;2023-04-24T22:20:20;100754.38;;;6.20;100.00
20043;BME280;10182;52.896;6.496;2023-04-24T22:25:22;100761.44;;;6.20;100.00
20043;BME280;10182;52.896;6.496;2023-04-24T22:30:24;100765.31;;;6.06;100.00
20043;BME280;10182;52.896;6.496;2023-04-24T22:35:27;100770.78;;;5.97;100.00
20043;BME280;10182;52.896;6.496;2023-04-24T22:40:29;100772.75;;;5.89;100.00
20043;BME280;10182;52.896;6.496;2023-04-24T22:45:30;100780.06;;;5.78;100.00
20043;BME280;10182;52.896;6.496;2023-04-24T22:50:33;100783.53;;;5.78;100.00
20043;BME280;10182;52.896;6.496;2023-04-24T22:55:35;100785.31;;;5.78;100.00
20043;BME280;10182;52.896;6.496;2023-04-24T23:00:37;100780.03;;;5.79;100.00
20043;BME280;10182;52.896;6.496;2023-04-24T23:05:40;100784.28;;;5.83;100.00
20043;BME280;10182;52.896;6.496;2023-04-24T23:10:42;100787.91;;;5.79;100.00
20043;BME280;10182;52.896;6.496;2023-04-24T23:15:43;100794.19;;;5.73;100.00
20043;BME280;10182;52.896;6.496;2023-04-24T23:20:47;100795.13;;;5.71;100.00
20043;BME280;10182;52.896;6.496;2023-04-24T23:25:48;100806.63;;;5.67;100.00
20043;BME280;10182;52.896;6.496;2023-04-24T23:30:50;100810.09;;;5.69;100.00
20043;BME280;10182;52.896;6.496;2023-04-24T23:35:53;100805.84;;;5.63;100.00
20043;BME280;10182;52.896;6.496;2023-04-24T23:40:55;100806.81;;;5.59;100.00
20043;BME280;10182;52.896;6.496;2023-04-24T23:45:57;100799.22;;;5.48;100.00
20043;BME280;10182;52.896;6.496;2023-04-24T23:51:00;100807.00;;;5.51;100.00
20043;BME280;10182;52.896;6.496;2023-04-24T23:56:02;100800.97;;;5.48;100.00
